createdAt,value
2019-06-04T00:01:14.416Z,98.82
2019-06-04T00:01:59.856Z,98.71
2019-06-04T00:02:58.164Z,98.92
2019-06-04T00:03:59.630Z,98.41
2019-06-04T00:04:58.261Z,99.02
2019-06-04T00:05:58.203Z,98.41
2019-06-04T00:06:58.279Z,99.12
2019-06-04T00:07:57.990Z,99.32
2019-06-04T00:08:58.508Z,98.61
2019-06-04T00:09:57.894Z,98.51
2019-06-04T00:10:58.531Z,98.66
2019-06-04T00:11:57.910Z,98.82
2019-06-04T00:12:57.913Z,98.36
2019-06-04T00:13:59.010Z,99.16
2019-06-04T00:14:57.968Z,98.46
2019-06-04T00:15:59.014Z,99.07
2019-06-04T00:16:58.411Z,98.61
2019-06-04T00:17:57.830Z,98.76
2019-06-04T00:18:59.131Z,98.46
2019-06-04T00:19:59.042Z,98.66
2019-06-04T00:20:59.035Z,98.86
2019-06-04T00:21:57.782Z,98.36
2019-06-04T00:22:58.432Z,98.21
2019-06-04T00:23:58.533Z,98.76
2019-06-04T00:24:58.583Z,99.07
2019-06-04T00:25:58.883Z,98.46
2019-06-04T00:26:58.781Z,99.27
2019-06-04T00:27:58.947Z,99.16
2019-06-04T00:28:57.973Z,98.46
2019-06-04T00:29:58.056Z,98.76
2019-06-04T00:30:58.828Z,98.36
2019-06-04T00:31:57.927Z,98.16
2019-06-04T00:32:57.930Z,98.36
2019-06-04T00:33:58.188Z,98.56
2019-06-04T00:34:58.029Z,98.76
2019-06-04T00:35:58.260Z,98.76
2019-06-04T00:36:58.070Z,98.76
2019-06-04T00:37:58.542Z,99.07
2019-06-04T00:38:58.392Z,99.07
2019-06-04T00:39:58.572Z,99.07
2019-06-04T00:40:58.774Z,98.86
2019-06-04T00:41:58.691Z,98.76
2019-06-04T00:42:58.569Z,98.76
2019-06-04T00:43:58.663Z,98.96
2019-06-04T00:44:58.913Z,98.86
2019-06-04T00:45:58.517Z,98.66
2019-06-04T00:46:58.810Z,98.81
2019-06-04T00:47:58.921Z,99.07
2019-06-04T00:48:58.830Z,98.86
2019-06-04T00:49:58.624Z,98.71
2019-06-04T00:50:57.444Z,98.86
2019-06-04T00:51:57.419Z,98.46
2019-06-04T00:52:57.415Z,98.56
2019-06-04T00:53:57.398Z,98.50
2019-06-04T00:54:57.513Z,99.01
2019-06-04T00:55:58.144Z,98.71
2019-06-04T00:56:57.374Z,99.11
2019-06-04T00:57:58.334Z,99.41
2019-06-04T00:58:57.365Z,99.01
2019-06-04T00:59:58.414Z,99.41
2019-06-04T01:00:57.723Z,99.32
2019-06-04T01:01:58.793Z,99.92
2019-06-04T01:02:57.708Z,99.92
2019-06-04T01:03:57.285Z,99.92
2019-06-04T01:04:57.942Z,99.62
2019-06-04T01:05:57.271Z,99.72
2019-06-04T01:06:57.332Z,99.99
2019-06-04T01:07:57.355Z,99.82
2019-06-04T01:08:57.319Z,99.72
2019-06-04T01:09:57.499Z,99.99
2019-06-04T01:10:58.593Z,99.99
2019-06-04T01:11:57.596Z,99.99
2019-06-04T01:12:59.214Z,99.99
2019-06-04T01:13:57.942Z,99.62
2019-06-04T01:14:58.004Z,99.52
2019-06-04T01:15:58.023Z,99.52
2019-06-04T01:16:58.326Z,99.92
2019-06-04T01:17:58.407Z,99.82
2019-06-04T01:18:58.489Z,99.92
2019-06-04T01:19:58.482Z,99.72
2019-06-04T01:20:57.100Z,99.99
2019-06-04T01:21:57.077Z,99.56
2019-06-04T01:22:57.066Z,99.77
2019-06-04T01:23:57.064Z,99.56
2019-06-04T01:24:57.101Z,99.77
2019-06-04T01:25:57.041Z,99.97
2019-06-04T01:26:57.023Z,99.87
2019-06-04T01:27:57.012Z,99.97
2019-06-04T01:28:57.004Z,99.66
2019-06-04T01:29:57.047Z,99.97
2019-06-04T01:30:57.011Z,99.97
2019-06-04T01:32:11.053Z,99.91
2019-06-04T01:32:58.859Z,99.81
2019-06-04T01:33:56.973Z,99.99
2019-06-04T01:34:56.979Z,99.81
2019-06-04T01:35:56.930Z,99.99
2019-06-04T01:36:56.966Z,99.71
2019-06-04T01:37:56.901Z,99.99
2019-06-04T01:38:56.898Z,99.99
2019-06-04T01:39:57.537Z,99.99
2019-06-04T01:40:56.886Z,99.81
2019-06-04T01:41:56.903Z,99.99
2019-06-04T01:42:56.880Z,99.99
2019-06-04T01:43:56.858Z,99.91
2019-06-04T01:44:56.822Z,99.99
2019-06-04T01:45:56.801Z,99.99
2019-06-04T01:46:56.792Z,99.99
2019-06-04T01:47:56.775Z,99.99
2019-06-04T01:48:56.828Z,99.99
2019-06-04T01:49:56.782Z,99.99
2019-06-04T01:50:56.761Z,99.99
2019-06-04T01:51:56.735Z,99.99
2019-06-04T01:52:56.740Z,99.99
2019-06-04T01:53:56.725Z,99.99
2019-06-04T01:54:56.749Z,99.99
2019-06-04T01:55:56.707Z,99.99
2019-06-04T01:56:56.692Z,99.99
2019-06-04T01:57:56.670Z,99.99
2019-06-04T01:58:56.680Z,99.99
2019-06-04T01:59:56.677Z,99.99
2019-06-04T02:00:56.708Z,99.99
2019-06-04T02:01:56.689Z,99.99
2019-06-04T02:02:56.631Z,99.99
2019-06-04T02:03:56.613Z,99.99
2019-06-04T02:04:56.618Z,99.99
2019-06-04T02:05:56.599Z,99.99
2019-06-04T02:06:56.626Z,99.99
2019-06-04T02:07:56.566Z,99.99
2019-06-04T02:08:56.568Z,99.70
2019-06-04T02:09:56.544Z,99.80
2019-06-04T02:10:56.541Z,99.99
2019-06-04T02:11:56.526Z,99.85
2019-06-04T02:12:56.569Z,99.99
2019-06-04T02:13:56.491Z,99.99
2019-06-04T02:14:56.488Z,99.99
2019-06-04T02:15:56.487Z,99.99
2019-06-04T02:16:56.467Z,99.99
2019-06-04T02:17:56.453Z,99.99
2019-06-04T02:18:56.488Z,99.99
2019-06-04T02:19:56.465Z,99.99
2019-06-04T02:20:56.438Z,99.99
2019-06-04T02:21:56.411Z,99.99
2019-06-04T02:22:56.408Z,99.99
2019-06-04T02:23:56.473Z,99.99
2019-06-04T02:24:56.403Z,99.99
2019-06-04T02:25:56.365Z,99.99
2019-06-04T02:26:56.346Z,99.99
2019-06-04T02:27:56.351Z,99.99
2019-06-04T02:28:56.323Z,99.99
2019-06-04T02:29:56.307Z,99.99
2019-06-04T02:30:56.356Z,99.99
2019-06-04T02:31:56.282Z,99.99
2019-06-04T02:33:07.802Z,99.99
2019-06-04T02:33:57.282Z,99.99
2019-06-04T02:34:56.275Z,99.99
2019-06-04T02:35:56.254Z,99.99
2019-06-04T02:36:56.301Z,99.99
2019-06-04T02:37:56.223Z,99.99
2019-06-04T02:38:56.211Z,99.99
2019-06-04T02:39:56.217Z,99.99
2019-06-04T02:40:56.213Z,99.99
2019-06-04T02:41:56.195Z,99.99
2019-06-04T02:42:56.216Z,99.99
2019-06-04T02:43:56.159Z,99.99
2019-06-04T02:44:56.154Z,99.99
2019-06-04T02:45:56.133Z,99.99
2019-06-04T02:46:56.137Z,99.99
2019-06-04T02:47:56.149Z,99.99
2019-06-04T02:48:56.138Z,99.99
2019-06-04T02:49:56.099Z,99.99
2019-06-04T02:50:56.095Z,99.99
2019-06-04T02:51:56.075Z,99.99
2019-06-04T02:52:56.065Z,99.99
2019-06-04T02:53:56.043Z,99.99
2019-06-04T02:54:56.108Z,99.99
2019-06-04T02:55:56.045Z,99.99
2019-06-04T02:56:56.010Z,99.99
2019-06-04T02:57:56.016Z,99.99
2019-06-04T02:58:55.988Z,99.99
2019-06-04T02:59:55.974Z,99.99
2019-06-04T03:00:56.018Z,99.99
2019-06-04T03:01:55.948Z,99.99
2019-06-04T03:02:55.950Z,99.99
2019-06-04T03:03:55.928Z,99.99
2019-06-04T03:04:55.911Z,99.99
2019-06-04T03:05:55.924Z,99.99
2019-06-04T03:06:56.074Z,99.99
2019-06-04T03:07:55.880Z,99.99
2019-06-04T03:08:55.872Z,99.99
2019-06-04T03:09:55.854Z,99.99
2019-06-04T03:10:55.860Z,99.99
2019-06-04T03:11:55.837Z,99.99
2019-06-04T03:12:55.860Z,99.99
2019-06-04T03:13:55.828Z,99.99
2019-06-04T03:14:55.801Z,99.99
2019-06-04T03:15:55.789Z,99.99
2019-06-04T03:16:55.810Z,99.99
2019-06-04T03:17:55.770Z,99.99
2019-06-04T03:18:56.551Z,99.99
2019-06-04T03:19:55.744Z,99.99
2019-06-04T03:20:55.738Z,99.99
2019-06-04T03:21:55.732Z,99.99
2019-06-04T03:22:55.724Z,99.99
2019-06-04T03:23:55.730Z,99.90
2019-06-04T03:24:55.750Z,99.99
2019-06-04T03:25:55.690Z,99.99
2019-06-04T03:26:55.678Z,99.99
2019-06-04T03:27:55.658Z,99.99
2019-06-04T03:28:55.650Z,99.99
2019-06-04T03:29:55.649Z,99.65
2019-06-04T03:30:55.685Z,99.99
2019-06-04T03:31:55.625Z,99.99
2019-06-04T03:32:55.627Z,99.75
2019-06-04T03:33:58.640Z,99.75
2019-06-04T03:34:55.579Z,99.75
2019-06-04T03:35:55.564Z,99.95
2019-06-04T03:36:55.611Z,99.75
2019-06-04T03:37:55.581Z,99.99
2019-06-04T03:38:55.544Z,99.85
2019-06-04T03:39:55.527Z,99.85
2019-06-04T03:40:55.517Z,99.95
2019-06-04T03:41:55.498Z,99.99
2019-06-04T03:42:55.531Z,99.91
2019-06-04T03:43:55.473Z,99.95
2019-06-04T03:44:55.481Z,99.70
2019-06-04T03:45:55.451Z,99.80
2019-06-04T03:46:55.446Z,99.99
2019-06-04T03:47:55.433Z,99.85
2019-06-04T03:48:55.478Z,99.95
2019-06-04T03:49:55.421Z,99.44
2019-06-04T03:50:55.412Z,99.40
2019-06-04T03:51:55.393Z,99.55
2019-06-04T03:52:55.369Z,99.40
2019-06-04T03:53:55.375Z,99.44
2019-06-04T03:54:55.395Z,99.24
2019-06-04T03:55:55.337Z,99.14
2019-06-04T03:56:55.328Z,99.14
2019-06-04T03:57:55.313Z,99.24
2019-06-04T03:58:55.463Z,98.94
2019-06-04T03:59:55.328Z,99.24
2019-06-04T04:00:55.332Z,99.24
2019-06-04T04:01:55.363Z,99.04
2019-06-04T04:02:55.364Z,98.84
2019-06-04T04:04:07.137Z,99.04
2019-06-04T04:04:56.234Z,99.04
2019-06-04T04:05:55.214Z,99.65
2019-06-04T04:06:55.252Z,99.55
2019-06-04T04:07:55.196Z,99.44
2019-06-04T04:08:55.261Z,99.44
2019-06-04T04:09:55.168Z,99.19
2019-06-04T04:10:55.164Z,99.19
2019-06-04T04:11:55.169Z,99.40
2019-06-04T04:12:55.437Z,99.24
2019-06-04T04:13:55.163Z,99.55
2019-06-04T04:14:55.116Z,99.19
2019-06-04T04:15:55.122Z,99.40
2019-06-04T04:16:55.091Z,98.90
2019-06-04T04:17:55.091Z,99.19
2019-06-04T04:18:55.117Z,99.44
2019-06-04T04:19:55.054Z,99.19
2019-06-04T04:20:55.147Z,99.19
2019-06-04T04:21:55.036Z,99.30
2019-06-04T04:22:55.040Z,99.19
2019-06-04T04:23:55.024Z,99.46
2019-06-04T04:24:55.064Z,99.50
2019-06-04T04:25:54.992Z,99.25
2019-06-04T04:26:54.978Z,98.74
2019-06-04T04:27:55.010Z,98.65
2019-06-04T04:28:54.963Z,98.85
2019-06-04T04:29:54.967Z,98.90
2019-06-04T04:30:54.979Z,98.54
2019-06-04T04:31:54.919Z,99.01
2019-06-04T04:32:54.935Z,97.99
2019-06-04T04:33:54.898Z,98.29
2019-06-04T04:34:54.884Z,98.39
2019-06-04T04:35:54.906Z,98.60
2019-06-04T04:36:54.918Z,97.99
2019-06-04T04:37:54.869Z,97.79
2019-06-04T04:38:54.845Z,97.89
2019-06-04T04:39:54.840Z,98.09
2019-06-04T04:40:54.835Z,97.99
2019-06-04T04:41:54.834Z,97.74
2019-06-04T04:42:54.852Z,97.79
2019-06-04T04:43:54.794Z,97.85
2019-06-04T04:44:54.819Z,97.85
2019-06-04T04:45:54.771Z,97.34
2019-06-04T04:46:54.766Z,97.34
2019-06-04T04:47:54.750Z,97.74
2019-06-04T04:48:54.788Z,97.24
2019-06-04T04:49:54.717Z,96.98
2019-06-04T04:50:54.704Z,96.69
2019-06-04T04:51:54.697Z,97.09
2019-06-04T04:52:54.687Z,96.78
2019-06-04T04:53:54.671Z,96.89
2019-06-04T04:54:54.744Z,96.48
2019-06-04T04:55:54.649Z,96.69
2019-06-04T04:56:54.644Z,97.14
2019-06-04T04:57:54.658Z,97.05
2019-06-04T04:58:54.636Z,97.05
2019-06-04T04:59:54.608Z,96.94
2019-06-04T05:00:54.642Z,96.89
2019-06-04T05:01:54.591Z,97.25
2019-06-04T05:02:54.573Z,97.55
2019-06-04T05:03:54.562Z,96.64
2019-06-04T05:04:54.557Z,96.80
2019-06-04T05:05:54.556Z,96.19
2019-06-04T05:06:54.581Z,96.49
2019-06-04T05:07:54.548Z,96.80
2019-06-04T05:08:54.509Z,96.49
2019-06-04T05:09:54.548Z,95.84
2019-06-04T05:10:54.483Z,96.14
2019-06-04T05:11:54.504Z,95.84
2019-06-04T05:12:54.495Z,95.64
2019-06-04T05:13:54.463Z,95.49
2019-06-04T05:14:54.461Z,95.29
2019-06-04T05:15:54.433Z,95.29
2019-06-04T05:16:54.426Z,95.09
2019-06-04T05:17:54.405Z,94.89
2019-06-04T05:18:54.433Z,94.08
2019-06-04T05:19:54.381Z,94.24
2019-06-04T05:20:54.412Z,93.77
2019-06-04T05:21:54.360Z,93.84
2019-06-04T05:22:54.356Z,94.34
2019-06-04T05:23:54.346Z,94.04
2019-06-04T05:24:54.369Z,94.04
2019-06-04T05:25:54.322Z,94.13
2019-06-04T05:26:54.352Z,94.13
2019-06-04T05:27:54.302Z,94.04
2019-06-04T05:28:54.300Z,94.04
2019-06-04T05:29:54.281Z,95.14
2019-06-04T05:30:54.293Z,94.54
2019-06-04T05:31:54.256Z,94.29
2019-06-04T05:32:54.264Z,94.09
2019-06-04T05:33:54.232Z,95.00
2019-06-04T05:35:04.452Z,94.29
2019-06-04T05:35:55.245Z,94.29
2019-06-04T05:36:54.197Z,94.19
2019-06-04T05:37:54.187Z,93.79
2019-06-04T05:38:54.176Z,93.89
2019-06-04T05:39:54.210Z,94.09
2019-06-04T05:40:54.149Z,93.89
2019-06-04T05:41:54.193Z,93.99
2019-06-04T05:42:54.155Z,93.38
2019-06-04T05:43:56.927Z,93.18
2019-06-04T05:44:54.113Z,93.54
2019-06-04T05:45:54.190Z,93.54
2019-06-04T05:46:54.096Z,93.44
2019-06-04T05:47:54.111Z,93.74
2019-06-04T05:48:54.060Z,93.95
2019-06-04T05:49:54.054Z,93.85
2019-06-04T05:50:54.040Z,94.05
2019-06-04T05:51:54.072Z,94.10
2019-06-04T05:52:54.018Z,93.95
2019-06-04T05:53:54.058Z,93.60
2019-06-04T05:54:54.027Z,94.00
2019-06-04T05:55:54.008Z,93.90
2019-06-04T05:56:53.975Z,92.39
2019-06-04T05:57:53.966Z,93.19
2019-06-04T05:58:53.981Z,92.90
2019-06-04T05:59:53.982Z,92.05
2019-06-04T06:00:53.928Z,91.94
2019-06-04T06:01:53.918Z,92.75
2019-06-04T06:02:53.904Z,91.44
2019-06-04T06:03:53.905Z,90.73
2019-06-04T06:04:53.899Z,90.94
2019-06-04T06:05:53.904Z,90.53
2019-06-04T06:06:53.861Z,90.23
2019-06-04T06:07:53.929Z,90.59
2019-06-04T06:08:53.845Z,90.69
2019-06-04T06:09:53.844Z,91.19
2019-06-04T06:10:53.930Z,91.75
2019-06-04T06:11:54.050Z,92.30
2019-06-04T06:12:53.795Z,90.34
2019-06-04T06:13:53.784Z,90.39
2019-06-04T06:14:53.786Z,90.19
2019-06-04T06:15:53.766Z,89.59
2019-06-04T06:16:53.783Z,89.54
2019-06-04T06:17:53.776Z,89.54
2019-06-04T06:18:53.745Z,90.11
2019-06-04T06:19:53.720Z,90.50
2019-06-04T06:20:53.714Z,90.30
2019-06-04T06:21:53.696Z,89.90
2019-06-04T06:23:09.939Z,90.00
2019-06-04T06:23:54.699Z,88.49
2019-06-04T06:24:53.664Z,89.00
2019-06-04T06:25:53.650Z,88.49
2019-06-04T06:26:53.641Z,88.70
2019-06-04T06:27:53.655Z,89.20
2019-06-04T06:28:53.634Z,89.60
2019-06-04T06:29:53.642Z,90.11
2019-06-04T06:30:53.595Z,89.80
2019-06-04T06:31:53.589Z,88.95
2019-06-04T06:32:53.594Z,88.55
2019-06-04T06:33:53.565Z,88.45
2019-06-04T06:34:53.578Z,87.39
2019-06-04T06:35:53.586Z,88.65
2019-06-04T06:36:53.525Z,88.25
2019-06-04T06:37:53.539Z,88.25
2019-06-04T06:38:55.820Z,88.11
2019-06-04T06:39:53.493Z,88.11
2019-06-04T06:40:53.503Z,88.77
2019-06-04T06:41:53.516Z,89.07
2019-06-04T06:42:53.460Z,87.73
2019-06-04T06:43:53.448Z,87.37
2019-06-04T06:44:53.435Z,86.56
2019-06-04T06:45:53.425Z,86.26
2019-06-04T06:46:53.435Z,86.06
2019-06-04T06:47:53.449Z,85.86
2019-06-04T06:48:53.398Z,85.86
2019-06-04T06:49:53.457Z,85.66
2019-06-04T06:50:53.369Z,86.26
2019-06-04T06:51:53.369Z,85.75
2019-06-04T06:52:53.382Z,85.16
2019-06-04T06:53:53.386Z,85.66
2019-06-04T06:54:53.322Z,85.96
2019-06-04T06:55:53.313Z,85.36
2019-06-04T06:56:53.302Z,85.75
2019-06-04T06:57:53.291Z,85.82
2019-06-04T06:58:53.296Z,85.82
2019-06-04T06:59:53.331Z,84.71
2019-06-04T07:00:53.261Z,86.02
2019-06-04T07:01:53.248Z,85.72
2019-06-04T07:02:53.236Z,86.46
2019-06-04T07:03:53.236Z,85.92
2019-06-04T07:04:53.253Z,84.55
2019-06-04T07:05:59.979Z,86.02
2019-06-04T07:06:54.192Z,86.22
2019-06-04T07:07:53.266Z,86.02
2019-06-04T07:08:53.168Z,86.02
2019-06-04T07:09:53.160Z,86.22
2019-06-04T07:10:53.163Z,85.08
2019-06-04T07:11:53.186Z,85.97
2019-06-04T07:12:53.128Z,84.47
2019-06-04T07:13:53.114Z,84.17
2019-06-04T07:14:53.103Z,84.27
2019-06-04T07:15:53.097Z,84.47
2019-06-04T07:16:53.097Z,84.07
2019-06-04T07:17:53.149Z,83.87
2019-06-04T07:18:53.061Z,84.13
2019-06-04T07:19:53.050Z,83.73
2019-06-04T07:20:53.046Z,83.63
2019-06-04T07:21:53.026Z,82.93
2019-06-04T07:22:53.033Z,83.03
2019-06-04T07:23:53.040Z,82.73
2019-06-04T07:24:53.019Z,84.03
2019-06-04T07:25:53.425Z,83.83
2019-06-04T07:26:52.971Z,83.43
2019-06-04T07:27:53.033Z,83.53
2019-06-04T07:28:52.953Z,81.82
2019-06-04T07:29:52.974Z,82.93
2019-06-04T07:30:52.927Z,83.53
2019-06-04T07:31:52.919Z,81.42
2019-06-04T07:32:52.935Z,82.12
2019-06-04T07:33:52.893Z,82.53
2019-06-04T07:34:52.900Z,83.23
2019-06-04T07:35:52.900Z,82.63
2019-06-04T07:36:52.865Z,81.96
2019-06-04T07:37:52.876Z,82.43
2019-06-04T07:38:52.843Z,82.63
2019-06-04T07:40:05.066Z,83.53
2019-06-04T07:40:53.879Z,82.73
2019-06-04T07:41:52.819Z,82.63
2019-06-04T07:42:52.801Z,82.06
2019-06-04T07:43:52.782Z,82.23
2019-06-04T07:44:52.769Z,83.03
2019-06-04T07:45:52.759Z,81.82
2019-06-04T07:46:52.834Z,82.63
2019-06-04T07:47:52.792Z,81.96
2019-06-04T07:48:52.731Z,82.43
2019-06-04T07:49:52.716Z,82.23
2019-06-04T07:50:52.704Z,80.98
2019-06-04T07:51:52.692Z,80.54
2019-06-04T07:52:52.761Z,81.09
2019-06-04T07:53:52.675Z,81.04
2019-06-04T07:54:52.664Z,81.48
2019-06-04T07:55:52.658Z,81.38
2019-06-04T07:56:52.637Z,81.09
2019-06-04T07:57:57.779Z,79.78
2019-06-04T07:58:53.665Z,80.35
2019-06-04T07:59:52.605Z,80.74
2019-06-04T08:00:52.592Z,80.65
2019-06-04T08:02:07.043Z,79.34
2019-06-04T08:02:53.567Z,80.35
2019-06-04T08:03:52.558Z,80.65
2019-06-04T08:04:52.605Z,79.80
2019-06-04T08:05:52.542Z,79.71
2019-06-04T08:06:58.077Z,77.50
2019-06-04T08:07:53.510Z,77.84
2019-06-04T08:08:52.501Z,77.74
2019-06-04T08:09:52.492Z,78.14
2019-06-04T08:10:52.537Z,78.74
2019-06-04T08:11:52.464Z,80.35
2019-06-04T08:12:52.453Z,81.04
2019-06-04T08:13:52.544Z,81.04
2019-06-04T08:14:52.442Z,79.24
2019-06-04T08:15:52.424Z,80.65
2019-06-04T08:16:52.475Z,80.04
2019-06-04T08:17:52.514Z,79.24
2019-06-04T08:18:52.385Z,80.61
2019-06-04T08:19:52.374Z,80.21
2019-06-04T08:20:52.364Z,79.06
2019-06-04T08:21:57.921Z,79.06
2019-06-04T08:22:53.401Z,78.97
2019-06-04T08:23:52.351Z,79.27
2019-06-04T08:24:52.319Z,78.03
2019-06-04T08:25:52.320Z,78.43
2019-06-04T08:26:52.298Z,76.23
2019-06-04T08:27:52.319Z,78.23
2019-06-04T08:28:52.314Z,77.83
2019-06-04T08:29:52.262Z,78.73
2019-06-04T08:30:52.254Z,78.73
2019-06-04T08:31:52.240Z,78.63
2019-06-04T08:32:52.229Z,78.09
2019-06-04T08:33:52.223Z,77.29
2019-06-04T08:34:52.256Z,75.49
2019-06-04T08:35:52.201Z,75.99
2019-06-04T08:37:06.969Z,76.29
2019-06-04T08:37:53.282Z,77.69
2019-06-04T08:38:57.348Z,77.49
2019-06-04T08:39:53.205Z,77.49
2019-06-04T08:40:52.154Z,77.36
2019-06-04T08:41:52.129Z,75.76
2019-06-04T08:42:54.270Z,75.65
2019-06-04T08:43:52.109Z,76.35
2019-06-04T08:44:59.528Z,75.05
2019-06-04T08:45:53.116Z,74.76
2019-06-04T08:46:52.115Z,74.42
2019-06-04T08:47:52.163Z,73.69
2019-06-04T08:48:52.054Z,74.79
2019-06-04T08:49:52.042Z,75.48
2019-06-04T08:50:52.033Z,74.08
2019-06-04T08:51:52.065Z,74.68
2019-06-04T08:52:52.019Z,75.82
2019-06-04T08:53:52.008Z,75.38
2019-06-04T08:54:51.990Z,74.62
2019-06-04T08:55:52.010Z,74.08
2019-06-04T08:56:51.968Z,74.08
2019-06-04T08:57:52.044Z,74.32
2019-06-04T08:58:51.947Z,73.58
2019-06-04T08:59:51.947Z,72.78
2019-06-04T09:00:51.921Z,74.12
2019-06-04T09:01:51.911Z,74.62
2019-06-04T09:02:51.900Z,73.62
2019-06-04T09:03:51.955Z,74.22
2019-06-04T09:04:51.890Z,75.02
2019-06-04T09:05:51.881Z,74.92
2019-06-04T09:06:51.872Z,74.02
2019-06-04T09:07:51.849Z,74.92
2019-06-04T09:08:51.852Z,74.12
2019-06-04T09:09:53.642Z,74.62
2019-06-04T09:10:51.815Z,74.29
2019-06-04T09:11:51.995Z,73.69
2019-06-04T09:12:51.793Z,73.88
2019-06-04T09:13:51.786Z,74.45
2019-06-04T09:14:51.769Z,73.72
2019-06-04T09:15:55.762Z,73.22
2019-06-04T09:16:51.910Z,72.58
2019-06-04T09:17:53.766Z,72.28
2019-06-04T09:18:51.760Z,73.08
2019-06-04T09:19:51.761Z,72.68
2019-06-04T09:20:51.708Z,71.95
2019-06-04T09:21:52.156Z,71.48
2019-06-04T09:22:51.685Z,71.05
2019-06-04T09:23:51.827Z,72.15
2019-06-04T09:24:53.763Z,71.55
2019-06-04T09:25:51.652Z,69.86
2019-06-04T09:27:02.704Z,71.55
2019-06-04T09:27:52.833Z,70.75
2019-06-04T09:28:51.620Z,70.99
2019-06-04T09:29:51.637Z,71.59
2019-06-04T09:31:02.426Z,72.38
2019-06-04T09:31:52.596Z,71.39
2019-06-04T09:32:51.577Z,71.42
2019-06-04T09:33:51.634Z,71.02
2019-06-04T09:34:51.555Z,72.02
2019-06-04T09:35:51.543Z,72.81
2019-06-04T09:36:51.531Z,72.78
2019-06-04T09:38:02.497Z,71.62
2019-06-04T09:38:52.543Z,72.28
2019-06-04T09:39:53.543Z,71.19
2019-06-04T09:40:52.166Z,71.29
2019-06-04T09:41:51.479Z,70.75
2019-06-04T09:42:51.529Z,71.15
2019-06-04T09:43:51.469Z,70.65
2019-06-04T09:44:51.491Z,70.22
2019-06-04T09:45:51.454Z,69.73
2019-06-04T09:46:52.852Z,70.62
2019-06-04T09:47:51.995Z,70.98
2019-06-04T09:48:52.115Z,70.98
2019-06-04T09:49:54.182Z,71.19
2019-06-04T09:50:58.695Z,69.59
2019-06-04T09:51:52.381Z,69.09
2019-06-04T09:52:53.478Z,70.39
2019-06-04T09:53:51.345Z,69.89
2019-06-04T09:54:51.347Z,69.23
2019-06-04T09:55:51.660Z,69.99
2019-06-04T09:56:52.172Z,69.99
2019-06-04T09:58:26.128Z,69.20
2019-06-04T09:58:52.294Z,69.06
2019-06-04T09:59:51.455Z,69.76
2019-06-04T10:00:52.717Z,70.85
2019-06-04T10:01:53.590Z,69.82
2019-06-04T10:02:57.080Z,69.06
2019-06-04T10:03:52.236Z,68.13
2019-06-04T10:04:54.588Z,66.74
2019-06-04T10:05:51.973Z,67.24
2019-06-04T10:06:51.944Z,67.54
2019-06-04T10:08:10.833Z,67.04
2019-06-04T10:08:52.726Z,66.64
2019-06-04T10:09:52.478Z,66.44
2019-06-04T10:10:52.848Z,66.84
2019-06-04T10:11:52.484Z,67.54
2019-06-04T10:12:51.142Z,66.84
2019-06-04T10:13:51.140Z,67.93
2019-06-04T10:14:51.177Z,66.74
2019-06-04T10:15:51.383Z,67.04
2019-06-04T10:16:51.322Z,64.42
2019-06-04T10:17:51.354Z,65.72
2019-06-04T10:18:51.511Z,66.31
2019-06-04T10:19:51.864Z,65.72
2019-06-04T10:20:51.839Z,66.61
2019-06-04T10:21:51.999Z,67.47
2019-06-04T10:22:52.189Z,65.28
2019-06-04T10:23:51.022Z,65.39
2019-06-04T10:24:54.569Z,65.35
2019-06-04T10:25:52.444Z,64.26
2019-06-04T10:26:54.417Z,63.93
2019-06-04T10:27:52.352Z,61.94
2019-06-04T10:28:59.762Z,62.64
2019-06-04T10:29:52.282Z,63.73
2019-06-04T10:30:53.227Z,64.92
2019-06-04T10:31:50.967Z,63.64
2019-06-04T10:32:50.926Z,62.41
2019-06-04T10:33:50.923Z,62.31
2019-06-04T10:34:53.369Z,63.31
2019-06-04T10:35:53.474Z,63.48
2019-06-04T10:37:14.592Z,63.67
2019-06-04T10:37:52.893Z,62.75
2019-06-04T10:38:50.936Z,62.55
2019-06-04T10:39:51.246Z,61.63
2019-06-04T10:40:52.507Z,60.83
2019-06-04T10:41:51.392Z,61.43
2019-06-04T10:42:51.686Z,61.21
2019-06-04T10:43:51.500Z,61.77
2019-06-04T10:44:52.420Z,60.38
2019-06-04T10:45:51.575Z,60.94
2019-06-04T10:46:51.848Z,59.76
2019-06-04T10:47:52.899Z,58.77
2019-06-04T10:48:52.099Z,57.98
2019-06-04T10:49:50.823Z,58.84
2019-06-04T10:50:51.350Z,59.33
2019-06-04T10:51:51.771Z,58.05
2019-06-04T10:52:52.980Z,59.53
2019-06-04T10:53:51.600Z,57.48
2019-06-04T10:54:51.527Z,59.17
2019-06-04T10:55:52.018Z,58.25
2019-06-04T10:56:51.763Z,58.11
2019-06-04T10:57:51.585Z,59.79
2019-06-04T10:58:52.004Z,58.90
2019-06-04T10:59:52.826Z,57.84
2019-06-04T11:00:53.011Z,57.93
2019-06-04T11:01:51.965Z,59.03
2019-06-04T11:02:51.841Z,59.22
2019-06-04T11:03:51.599Z,59.42
2019-06-04T11:04:50.578Z,59.52
2019-06-04T11:05:50.744Z,59.19
2019-06-04T11:06:50.556Z,59.79
2019-06-04T11:07:50.590Z,60.19
2019-06-04T11:09:01.793Z,59.89
2019-06-04T11:09:52.225Z,58.37
2019-06-04T11:10:51.964Z,60.16
2019-06-04T11:11:50.693Z,59.04
2019-06-04T11:12:51.760Z,57.75
2019-06-04T11:13:50.789Z,57.33
2019-06-04T11:14:51.741Z,56.24
2019-06-04T11:15:51.362Z,55.58
2019-06-04T11:16:50.450Z,56.86
2019-06-04T11:17:51.465Z,56.07
2019-06-04T11:18:50.428Z,57.65
2019-06-04T11:19:51.257Z,56.04
2019-06-04T11:20:50.466Z,55.94
2019-06-04T11:21:50.530Z,56.14
2019-06-04T11:22:50.510Z,57.79
2019-06-04T11:23:50.832Z,55.55
2019-06-04T11:24:50.598Z,55.38
2019-06-04T11:25:51.552Z,54.88
2019-06-04T11:26:50.812Z,55.58
2019-06-04T11:27:50.975Z,56.07
2019-06-04T11:28:51.184Z,56.79
2019-06-04T11:29:51.172Z,58.05
2019-06-04T11:30:51.821Z,56.17
2019-06-04T11:31:51.378Z,57.73
2019-06-04T11:32:51.513Z,55.94
2019-06-04T11:33:51.823Z,55.92
2019-06-04T11:34:51.586Z,57.10
2019-06-04T11:35:51.013Z,57.40
2019-06-04T11:36:50.247Z,55.62
2019-06-04T11:37:50.501Z,55.13
2019-06-04T11:39:11.476Z,55.82
2019-06-04T11:39:52.364Z,56.12
2019-06-04T11:40:51.132Z,55.22
2019-06-04T11:41:50.418Z,56.24
2019-06-04T11:42:54.038Z,55.75
2019-06-04T11:43:51.204Z,56.04
2019-06-04T11:44:57.356Z,55.62
2019-06-04T11:45:51.159Z,56.21
2019-06-04T11:46:50.991Z,57.07
2019-06-04T11:47:51.012Z,54.90
2019-06-04T11:48:51.317Z,54.38
2019-06-04T11:49:51.895Z,54.68
2019-06-04T11:50:51.309Z,54.09
2019-06-04T11:51:51.092Z,53.69
2019-06-04T11:52:51.392Z,55.24
2019-06-04T11:53:51.383Z,54.95
2019-06-04T11:54:52.106Z,53.77
2019-06-04T11:55:52.185Z,54.03
2019-06-04T11:56:51.247Z,53.44
2019-06-04T11:57:52.246Z,53.57
2019-06-04T11:58:50.016Z,53.77
2019-06-04T11:59:50.017Z,54.16
2019-06-04T12:00:50.008Z,53.67
2019-06-04T12:01:50.040Z,53.57
2019-06-04T12:02:50.044Z,53.54
2019-06-04T12:03:49.969Z,54.03
2019-06-04T12:04:49.967Z,54.21
2019-06-04T12:05:49.991Z,52.23
2019-06-04T12:06:49.935Z,53.12
2019-06-04T12:07:49.983Z,52.73
2019-06-04T12:08:49.914Z,53.17
2019-06-04T12:09:49.925Z,53.05
2019-06-04T12:10:49.961Z,52.75
2019-06-04T12:12:14.732Z,52.75
2019-06-04T12:12:50.905Z,52.75
2019-06-04T12:13:49.860Z,53.41
2019-06-04T12:14:49.853Z,51.35
2019-06-04T12:15:49.847Z,52.14
2019-06-04T12:16:49.835Z,51.35
2019-06-04T12:17:49.851Z,51.54
2019-06-04T12:18:49.865Z,51.76
2019-06-04T12:19:49.805Z,51.28
2019-06-04T12:20:49.821Z,51.67
2019-06-04T12:21:49.791Z,53.05
2019-06-04T12:23:24.784Z,52.53
2019-06-04T12:23:50.843Z,52.43
2019-06-04T12:24:49.766Z,51.76
2019-06-04T12:25:49.743Z,51.37
2019-06-04T12:26:49.734Z,50.95
2019-06-04T12:27:49.721Z,51.52
2019-06-04T12:28:49.712Z,52.21
2019-06-04T12:29:49.755Z,50.85
2019-06-04T12:30:49.754Z,51.07
2019-06-04T12:31:49.690Z,51.54
2019-06-04T12:32:49.674Z,51.25
2019-06-04T12:33:49.691Z,51.35
2019-06-04T12:34:49.653Z,51.12
2019-06-04T12:35:49.677Z,52.80
2019-06-04T12:36:49.651Z,51.12
2019-06-04T12:37:49.629Z,52.60
2019-06-04T12:38:49.609Z,51.03
2019-06-04T12:39:51.460Z,51.25
2019-06-04T12:40:49.599Z,51.15
2019-06-04T12:41:49.620Z,51.32
2019-06-04T12:42:49.584Z,51.22
2019-06-04T12:43:50.628Z,51.00
2019-06-04T12:44:49.550Z,51.20
2019-06-04T12:45:49.547Z,50.90
2019-06-04T12:46:49.556Z,51.40
2019-06-04T12:47:49.576Z,51.57
2019-06-04T12:48:49.562Z,50.98
2019-06-04T12:49:50.669Z,51.15
2019-06-04T12:50:49.491Z,51.05
2019-06-04T12:51:49.486Z,51.03
2019-06-04T12:52:49.474Z,51.03